sensor_id;sensor_type;location;lat;lon;timestamp;temperature;humidity
22383;DHT22;11359;45.802;13.530;2023-03-05T00:01:41;17.60;29.70
22383;DHT22;11359;45.802;13.530;2023-03-05T00:04:11;17.60;29.70
22383;DHT22;11359;45.802;13.530;2023-03-05T00:06:37;17.60;29.70
22383;DHT22;11359;45.802;13.530;2023-03-05T00:09:03;17.50;29.70
22383;DHT22;11359;45.802;13.530;2023-03-05T00:11:30;17.40;29.70
22383;DHT22;11359;45.802;13.530;2023-03-05T00:13:58;17.40;29.70
22383;DHT22;11359;45.802;13.530;2023-03-05T00:16:24;17.30;29.70
22383;DHT22;11359;45.802;13.530;2023-03-05T00:18:51;17.30;29.70
22383;DHT22;11359;45.802;13.530;2023-03-05T00:21:37;17.20;29.80
22383;DHT22;11359;45.802;13.530;2023-03-05T00:24:05;17.20;29.80
22383;DHT22;11359;45.802;13.530;2023-03-05T00:26:34;17.10;29.80
22383;DHT22;11359;45.802;13.530;2023-03-05T00:29:01;17.10;29.80
22383;DHT22;11359;45.802;13.530;2023-03-05T00:31:29;17.10;29.80
22383;DHT22;11359;45.802;13.530;2023-03-05T00:33:58;17.00;29.80
22383;DHT22;11359;45.802;13.530;2023-03-05T00:36:24;16.90;29.80
22383;DHT22;11359;45.802;13.530;2023-03-05T00:38:50;16.90;29.80
22383;DHT22;11359;45.802;13.530;2023-03-05T00:41:16;16.80;29.70
22383;DHT22;11359;45.802;13.530;2023-03-05T00:43:42;16.70;29.70
22383;DHT22;11359;45.802;13.530;2023-03-05T00:46:08;16.70;29.80
22383;DHT22;11359;45.802;13.530;2023-03-05T00:48:33;16.60;29.80
22383;DHT22;11359;45.802;13.530;2023-03-05T00:50:59;16.60;29.90
22383;DHT22;11359;45.802;13.530;2023-03-05T00:53:25;16.50;29.90
22383;DHT22;11359;45.802;13.530;2023-03-05T00:55:50;16.40;30.00
22383;DHT22;11359;45.802;13.530;2023-03-05T00:58:16;16.40;30.00
22383;DHT22;11359;45.802;13.530;2023-03-05T01:00:42;16.40;30.00
22383;DHT22;11359;45.802;13.530;2023-03-05T01:03:08;16.30;30.00
22383;DHT22;11359;45.802;13.530;2023-03-05T01:05:34;16.30;30.00
22383;DHT22;11359;45.802;13.530;2023-03-05T01:07:59;16.30;30.10
22383;DHT22;11359;45.802;13.530;2023-03-05T01:10:27;16.20;30.00
22383;DHT22;11359;45.802;13.530;2023-03-05T01:12:56;16.20;30.00
22383;DHT22;11359;45.802;13.530;2023-03-05T01:15:23;16.10;30.10
22383;DHT22;11359;45.802;13.530;2023-03-05T01:17:48;16.10;30.20
22383;DHT22;11359;45.802;13.530;2023-03-05T01:20:15;16.00;30.20
22383;DHT22;11359;45.802;13.530;2023-03-05T01:22:41;16.00;30.40
22383;DHT22;11359;45.802;13.530;2023-03-05T01:25:07;16.00;30.40
22383;DHT22;11359;45.802;13.530;2023-03-05T01:27:33;16.00;30.40
22383;DHT22;11359;45.802;13.530;2023-03-05T01:29:59;15.90;30.40
22383;DHT22;11359;45.802;13.530;2023-03-05T01:32:25;15.90;30.50
22383;DHT22;11359;45.802;13.530;2023-03-05T01:34:50;15.80;30.50
22383;DHT22;11359;45.802;13.530;2023-03-05T01:37:16;15.80;30.50
22383;DHT22;11359;45.802;13.530;2023-03-05T01:39:42;15.80;30.60
22383;DHT22;11359;45.802;13.530;2023-03-05T01:42:07;15.70;30.50
22383;DHT22;11359;45.802;13.530;2023-03-05T01:44:33;15.70;30.60
22383;DHT22;11359;45.802;13.530;2023-03-05T01:46:59;15.60;30.50
22383;DHT22;11359;45.802;13.530;2023-03-05T01:49:29;15.60;30.60
22383;DHT22;11359;45.802;13.530;2023-03-05T01:52:11;15.50;30.70
22383;DHT22;11359;45.802;13.530;2023-03-05T01:54:45;15.50;30.80
22383;DHT22;11359;45.802;13.530;2023-03-05T01:57:17;15.50;30.90
22383;DHT22;11359;45.802;13.530;2023-03-05T01:59:47;15.40;30.90
22383;DHT22;11359;45.802;13.530;2023-03-05T02:02:14;15.30;30.90
22383;DHT22;11359;45.802;13.530;2023-03-05T02:04:45;15.30;31.00
22383;DHT22;11359;45.802;13.530;2023-03-05T02:07:11;15.30;31.00
22383;DHT22;11359;45.802;13.530;2023-03-05T02:09:39;15.20;31.10
22383;DHT22;11359;45.802;13.530;2023-03-05T02:12:05;15.20;31.20
22383;DHT22;11359;45.802;13.530;2023-03-05T02:14:32;15.20;31.20
22383;DHT22;11359;45.802;13.530;2023-03-05T02:16:58;15.10;31.20
22383;DHT22;11359;45.802;13.530;2023-03-05T02:19:24;15.10;31.30
22383;DHT22;11359;45.802;13.530;2023-03-05T02:21:49;15.10;31.30
22383;DHT22;11359;45.802;13.530;2023-03-05T02:24:18;15.00;31.40
22383;DHT22;11359;45.802;13.530;2023-03-05T02:26:56;15.00;31.50
22383;DHT22;11359;45.802;13.530;2023-03-05T02:29:22;15.00;31.60
22383;DHT22;11359;45.802;13.530;2023-03-05T02:31:48;15.00;31.60
22383;DHT22;11359;45.802;13.530;2023-03-05T02:34:13;14.90;31.60
22383;DHT22;11359;45.802;13.530;2023-03-05T02:36:39;14.90;31.60
22383;DHT22;11359;45.802;13.530;2023-03-05T02:39:05;14.90;31.60
22383;DHT22;11359;45.802;13.530;2023-03-05T02:41:31;14.80;31.60
22383;DHT22;11359;45.802;13.530;2023-03-05T02:43:56;14.80;31.70
22383;DHT22;11359;45.802;13.530;2023-03-05T02:46:22;14.70;31.70
22383;DHT22;11359;45.802;13.530;2023-03-05T02:48:48;14.70;31.70
22383;DHT22;11359;45.802;13.530;2023-03-05T02:51:14;14.70;31.70
22383;DHT22;11359;45.802;13.530;2023-03-05T02:53:40;14.60;31.80
22383;DHT22;11359;45.802;13.530;2023-03-05T02:56:06;14.60;31.80
22383;DHT22;11359;45.802;13.530;2023-03-05T02:58:32;14.50;31.80
22383;DHT22;11359;45.802;13.530;2023-03-05T03:00:57;14.50;31.80
22383;DHT22;11359;45.802;13.530;2023-03-05T03:03:23;14.40;32.00
22383;DHT22;11359;45.802;13.530;2023-03-05T03:05:48;14.40;32.10
22383;DHT22;11359;45.802;13.530;2023-03-05T03:08:15;14.40;32.20
22383;DHT22;11359;45.802;13.530;2023-03-05T03:10:40;14.40;32.30
22383;DHT22;11359;45.802;13.530;2023-03-05T03:13:06;14.40;32.30
22383;DHT22;11359;45.802;13.530;2023-03-05T03:15:32;14.30;32.30
22383;DHT22;11359;45.802;13.530;2023-03-05T03:17:57;14.30;32.30
22383;DHT22;11359;45.802;13.530;2023-03-05T03:20:23;14.30;32.30
22383;DHT22;11359;45.802;13.530;2023-03-05T03:22:49;14.30;32.30
22383;DHT22;11359;45.802;13.530;2023-03-05T03:25:20;14.30;32.30
22383;DHT22;11359;45.802;13.530;2023-03-05T03:27:47;14.20;32.30
22383;DHT22;11359;45.802;13.530;2023-03-05T03:30:14;14.20;32.30
22383;DHT22;11359;45.802;13.530;2023-03-05T03:32:39;14.20;32.30
22383;DHT22;11359;45.802;13.530;2023-03-05T03:35:06;14.20;32.40
22383;DHT22;11359;45.802;13.530;2023-03-05T03:37:32;14.10;32.40
22383;DHT22;11359;45.802;13.530;2023-03-05T03:39:57;14.10;32.40
22383;DHT22;11359;45.802;13.530;2023-03-05T03:42:23;14.00;32.40
22383;DHT22;11359;45.802;13.530;2023-03-05T03:44:49;14.00;32.50
22383;DHT22;11359;45.802;13.530;2023-03-05T03:47:16;14.00;32.50
22383;DHT22;11359;45.802;13.530;2023-03-05T03:49:42;14.00;32.70
22383;DHT22;11359;45.802;13.530;2023-03-05T03:52:07;13.90;32.60
22383;DHT22;11359;45.802;13.530;2023-03-05T03:54:33;13.90;32.70
22383;DHT22;11359;45.802;13.530;2023-03-05T03:56:59;13.90;32.70
22383;DHT22;11359;45.802;13.530;2023-03-05T03:59:24;13.90;32.80
22383;DHT22;11359;45.802;13.530;2023-03-05T04:01:50;13.80;32.70
22383;DHT22;11359;45.802;13.530;2023-03-05T04:04:16;13.80;32.80
22383;DHT22;11359;45.802;13.530;2023-03-05T04:06:42;13.80;33.60
22383;DHT22;11359;45.802;13.530;2023-03-05T04:09:07;13.80;32.90
22383;DHT22;11359;45.802;13.530;2023-03-05T04:11:34;13.80;33.00
22383;DHT22;11359;45.802;13.530;2023-03-05T04:14:00;13.70;33.00
22383;DHT22;11359;45.802;13.530;2023-03-05T04:16:26;13.70;33.00
22383;DHT22;11359;45.802;13.530;2023-03-05T04:18:51;13.70;33.00
22383;DHT22;11359;45.802;13.530;2023-03-05T04:21:17;13.70;33.10
22383;DHT22;11359;45.802;13.530;2023-03-05T04:23:44;13.70;33.10
22383;DHT22;11359;45.802;13.530;2023-03-05T04:26:10;13.70;33.10
22383;DHT22;11359;45.802;13.530;2023-03-05T04:28:35;13.70;33.20
22383;DHT22;11359;45.802;13.530;2023-03-05T04:31:02;13.70;33.20
22383;DHT22;11359;45.802;13.530;2023-03-05T04:33:27;13.70;33.20
22383;DHT22;11359;45.802;13.530;2023-03-05T04:35:53;13.60;33.20
22383;DHT22;11359;45.802;13.530;2023-03-05T04:38:18;13.60;33.30
22383;DHT22;11359;45.802;13.530;2023-03-05T04:40:45;13.50;33.30
22383;DHT22;11359;45.802;13.530;2023-03-05T04:43:11;13.60;33.40
22383;DHT22;11359;45.802;13.530;2023-03-05T04:45:39;13.50;33.40
22383;DHT22;11359;45.802;13.530;2023-03-05T04:48:05;13.50;33.50
22383;DHT22;11359;45.802;13.530;2023-03-05T04:50:31;13.50;33.50
22383;DHT22;11359;45.802;13.530;2023-03-05T04:52:57;13.50;33.50
22383;DHT22;11359;45.802;13.530;2023-03-05T04:55:22;13.50;33.50
22383;DHT22;11359;45.802;13.530;2023-03-05T04:57:48;13.50;33.60
22383;DHT22;11359;45.802;13.530;2023-03-05T05:00:15;13.40;33.60
22383;DHT22;11359;45.802;13.530;2023-03-05T05:02:42;13.40;33.60
22383;DHT22;11359;45.802;13.530;2023-03-05T05:05:11;13.40;33.70
22383;DHT22;11359;45.802;13.530;2023-03-05T05:07:37;13.40;33.70
22383;DHT22;11359;45.802;13.530;2023-03-05T05:10:03;13.40;33.80
22383;DHT22;11359;45.802;13.530;2023-03-05T05:12:29;13.40;33.90
22383;DHT22;11359;45.802;13.530;2023-03-05T05:14:59;13.40;33.90
22383;DHT22;11359;45.802;13.530;2023-03-05T05:17:25;13.40;33.90
22383;DHT22;11359;45.802;13.530;2023-03-05T05:19:51;13.40;33.90
22383;DHT22;11359;45.802;13.530;2023-03-05T05:22:17;13.40;33.90
22383;DHT22;11359;45.802;13.530;2023-03-05T05:24:42;13.30;33.90
22383;DHT22;11359;45.802;13.530;2023-03-05T05:27:08;13.30;33.90
22383;DHT22;11359;45.802;13.530;2023-03-05T05:29:34;13.30;34.70
22383;DHT22;11359;45.802;13.530;2023-03-05T05:31:59;13.30;34.10
22383;DHT22;11359;45.802;13.530;2023-03-05T05:34:25;13.30;34.10
22383;DHT22;11359;45.802;13.530;2023-03-05T05:36:52;13.30;34.10
22383;DHT22;11359;45.802;13.530;2023-03-05T05:39:17;13.30;34.10
22383;DHT22;11359;45.802;13.530;2023-03-05T05:41:43;13.40;34.20
22383;DHT22;11359;45.802;13.530;2023-03-05T05:44:09;13.40;34.20
22383;DHT22;11359;45.802;13.530;2023-03-05T05:46:35;13.40;34.30
22383;DHT22;11359;45.802;13.530;2023-03-05T05:49:00;13.50;34.30
22383;DHT22;11359;45.802;13.530;2023-03-05T05:51:26;13.50;34.30
22383;DHT22;11359;45.802;13.530;2023-03-05T05:53:52;13.50;34.30
22383;DHT22;11359;45.802;13.530;2023-03-05T05:56:18;13.50;34.30
22383;DHT22;11359;45.802;13.530;2023-03-05T05:58:46;13.60;34.30
22383;DHT22;11359;45.802;13.530;2023-03-05T06:03:37;13.60;34.40
22383;DHT22;11359;45.802;13.530;2023-03-05T06:06:08;13.70;34.40
22383;DHT22;11359;45.802;13.530;2023-03-05T06:08:34;13.80;34.50
22383;DHT22;11359;45.802;13.530;2023-03-05T06:10:59;13.80;34.50
22383;DHT22;11359;45.802;13.530;2023-03-05T06:13:25;13.80;34.50
22383;DHT22;11359;45.802;13.530;2023-03-05T06:15:59;13.90;34.50
22383;DHT22;11359;45.802;13.530;2023-03-05T06:18:25;13.90;34.50
22383;DHT22;11359;45.802;13.530;2023-03-05T06:20:56;14.00;34.50
22383;DHT22;11359;45.802;13.530;2023-03-05T06:23:22;14.00;34.50
22383;DHT22;11359;45.802;13.530;2023-03-05T06:25:48;14.10;34.50
22383;DHT22;11359;45.802;13.530;2023-03-05T06:28:13;14.10;34.50
22383;DHT22;11359;45.802;13.530;2023-03-05T06:30:39;14.20;34.50
22383;DHT22;11359;45.802;13.530;2023-03-05T06:33:04;14.20;34.50
22383;DHT22;11359;45.802;13.530;2023-03-05T06:35:31;14.30;34.50
22383;DHT22;11359;45.802;13.530;2023-03-05T06:37:57;14.40;34.60
22383;DHT22;11359;45.802;13.530;2023-03-05T06:40:22;14.40;34.50
22383;DHT22;11359;45.802;13.530;2023-03-05T06:42:48;14.50;34.50
22383;DHT22;11359;45.802;13.530;2023-03-05T06:45:14;14.60;34.50
22383;DHT22;11359;45.802;13.530;2023-03-05T06:47:39;14.60;34.40
22383;DHT22;11359;45.802;13.530;2023-03-05T06:50:05;14.70;34.50
22383;DHT22;11359;45.802;13.530;2023-03-05T06:52:31;14.80;34.50
22383;DHT22;11359;45.802;13.530;2023-03-05T06:54:57;14.90;34.50
22383;DHT22;11359;45.802;13.530;2023-03-05T06:57:22;14.90;34.50
22383;DHT22;11359;45.802;13.530;2023-03-05T06:59:48;15.00;34.40
22383;DHT22;11359;45.802;13.530;2023-03-05T07:02:13;15.10;34.40
22383;DHT22;11359;45.802;13.530;2023-03-05T07:04:40;15.10;34.30
22383;DHT22;11359;45.802;13.530;2023-03-05T07:07:05;15.20;34.30
22383;DHT22;11359;45.802;13.530;2023-03-05T07:09:31;15.30;34.30
22383;DHT22;11359;45.802;13.530;2023-03-05T07:11:57;15.40;34.30
22383;DHT22;11359;45.802;13.530;2023-03-05T07:14:22;15.50;34.30
22383;DHT22;11359;45.802;13.530;2023-03-05T07:16:48;15.50;34.30
22383;DHT22;11359;45.802;13.530;2023-03-05T07:19:15;15.50;34.20
22383;DHT22;11359;45.802;13.530;2023-03-05T07:21:41;15.60;34.20
22383;DHT22;11359;45.802;13.530;2023-03-05T07:24:07;15.70;34.20
22383;DHT22;11359;45.802;13.530;2023-03-05T07:26:33;15.70;34.10
22383;DHT22;11359;45.802;13.530;2023-03-05T07:28:59;15.80;34.20
22383;DHT22;11359;45.802;13.530;2023-03-05T07:31:25;15.80;34.10
22383;DHT22;11359;45.802;13.530;2023-03-05T07:33:55;15.90;34.20
22383;DHT22;11359;45.802;13.530;2023-03-05T07:36:21;16.00;34.20
22383;DHT22;11359;45.802;13.530;2023-03-05T07:38:47;16.10;34.20
22383;DHT22;11359;45.802;13.530;2023-03-05T07:41:15;16.10;34.10
22383;DHT22;11359;45.802;13.530;2023-03-05T07:43:45;16.20;34.10
22383;DHT22;11359;45.802;13.530;2023-03-05T07:46:14;16.20;34.10
22383;DHT22;11359;45.802;13.530;2023-03-05T07:48:40;16.30;34.10
22383;DHT22;11359;45.802;13.530;2023-03-05T07:51:09;16.40;34.00
22383;DHT22;11359;45.802;13.530;2023-03-05T07:53:36;16.40;34.00
22383;DHT22;11359;45.802;13.530;2023-03-05T07:56:02;16.50;34.00
22383;DHT22;11359;45.802;13.530;2023-03-05T07:58:28;16.50;33.90
22383;DHT22;11359;45.802;13.530;2023-03-05T08:00:53;16.60;33.90
22383;DHT22;11359;45.802;13.530;2023-03-05T08:03:19;16.60;33.90
22383;DHT22;11359;45.802;13.530;2023-03-05T08:05:44;16.70;34.00
22383;DHT22;11359;45.802;13.530;2023-03-05T08:08:10;16.70;33.90
22383;DHT22;11359;45.802;13.530;2023-03-05T08:10:36;16.80;33.80
22383;DHT22;11359;45.802;13.530;2023-03-05T08:13:02;16.80;33.80
22383;DHT22;11359;45.802;13.530;2023-03-05T08:15:28;16.90;33.60
22383;DHT22;11359;45.802;13.530;2023-03-05T08:17:59;16.90;33.50
22383;DHT22;11359;45.802;13.530;2023-03-05T08:20:25;17.00;33.60
22383;DHT22;11359;45.802;13.530;2023-03-05T08:22:50;17.00;33.60
22383;DHT22;11359;45.802;13.530;2023-03-05T08:25:16;17.10;33.70
22383;DHT22;11359;45.802;13.530;2023-03-05T08:27:43;17.10;33.70
22383;DHT22;11359;45.802;13.530;2023-03-05T08:30:16;17.20;33.60
22383;DHT22;11359;45.802;13.530;2023-03-05T08:32:43;17.20;33.60
22383;DHT22;11359;45.802;13.530;2023-03-05T08:35:09;17.30;33.70
22383;DHT22;11359;45.802;13.530;2023-03-05T08:37:35;17.30;33.60
22383;DHT22;11359;45.802;13.530;2023-03-05T08:40:02;17.30;33.50
22383;DHT22;11359;45.802;13.530;2023-03-05T08:42:28;17.40;33.60
22383;DHT22;11359;45.802;13.530;2023-03-05T08:44:53;17.40;33.60
22383;DHT22;11359;45.802;13.530;2023-03-05T08:47:19;17.50;33.60
22383;DHT22;11359;45.802;13.530;2023-03-05T08:49:45;17.50;33.40
22383;DHT22;11359;45.802;13.530;2023-03-05T08:52:11;17.50;33.20
22383;DHT22;11359;45.802;13.530;2023-03-05T08:54:37;17.50;33.20
22383;DHT22;11359;45.802;13.530;2023-03-05T08:57:03;17.60;33.30
22383;DHT22;11359;45.802;13.530;2023-03-05T08:59:29;17.60;33.30
22383;DHT22;11359;45.802;13.530;2023-03-05T09:01:54;17.60;33.20
22383;DHT22;11359;45.802;13.530;2023-03-05T09:04:20;17.70;33.20
22383;DHT22;11359;45.802;13.530;2023-03-05T09:06:46;17.70;33.20
22383;DHT22;11359;45.802;13.530;2023-03-05T09:09:11;17.80;33.30
22383;DHT22;11359;45.802;13.530;2023-03-05T09:11:38;17.80;33.20
22383;DHT22;11359;45.802;13.530;2023-03-05T09:14:05;17.80;33.10
22383;DHT22;11359;45.802;13.530;2023-03-05T09:16:31;17.80;32.90
22383;DHT22;11359;45.802;13.530;2023-03-05T09:18:58;17.90;33.00
22383;DHT22;11359;45.802;13.530;2023-03-05T09:21:24;17.90;32.90
22383;DHT22;11359;45.802;13.530;2023-03-05T09:23:50;17.90;32.90
22383;DHT22;11359;45.802;13.530;2023-03-05T09:26:17;17.90;32.90
22383;DHT22;11359;45.802;13.530;2023-03-05T09:28:43;17.90;32.90
22383;DHT22;11359;45.802;13.530;2023-03-05T09:31:10;17.90;32.80
22383;DHT22;11359;45.802;13.530;2023-03-05T09:33:36;17.90;32.80
22383;DHT22;11359;45.802;13.530;2023-03-05T09:36:04;17.90;32.80
22383;DHT22;11359;45.802;13.530;2023-03-05T09:38:30;18.00;33.00
22383;DHT22;11359;45.802;13.530;2023-03-05T09:41:06;18.00;33.00
22383;DHT22;11359;45.802;13.530;2023-03-05T09:48:52;18.00;33.20
22383;DHT22;11359;45.802;13.530;2023-03-05T09:51:24;18.00;33.20
22383;DHT22;11359;45.802;13.530;2023-03-05T09:54:04;18.10;33.20
22383;DHT22;11359;45.802;13.530;2023-03-05T09:56:54;18.00;33.00
22383;DHT22;11359;45.802;13.530;2023-03-05T09:59:29;18.00;32.40
22383;DHT22;11359;45.802;13.530;2023-03-05T10:02:00;17.20;30.40
22383;DHT22;11359;45.802;13.530;2023-03-05T10:04:44;16.30;30.90
22383;DHT22;11359;45.802;13.530;2023-03-05T10:12:54;14.60;33.30
22383;DHT22;11359;45.802;13.530;2023-03-05T10:15:30;14.30;34.00
22383;DHT22;11359;45.802;13.530;2023-03-05T10:18:09;14.10;34.50
22383;DHT22;11359;45.802;13.530;2023-03-05T10:23:36;13.80;35.50
22383;DHT22;11359;45.802;13.530;2023-03-05T10:37:25;14.90;37.60
22383;DHT22;11359;45.802;13.530;2023-03-05T10:42:57;15.40;37.20
22383;DHT22;11359;45.802;13.530;2023-03-05T10:45:30;15.60;37.00
22383;DHT22;11359;45.802;13.530;2023-03-05T10:50:46;15.80;36.70
22383;DHT22;11359;45.802;13.530;2023-03-05T10:53:22;15.90;36.60
22383;DHT22;11359;45.802;13.530;2023-03-05T10:55:51;16.10;36.60
22383;DHT22;11359;45.802;13.530;2023-03-05T10:58:21;16.10;36.30
22383;DHT22;11359;45.802;13.530;2023-03-05T11:01:03;16.20;36.30
22383;DHT22;11359;45.802;13.530;2023-03-05T11:06:41;16.40;36.20
22383;DHT22;11359;45.802;13.530;2023-03-05T11:09:26;16.40;36.00
22383;DHT22;11359;45.802;13.530;2023-03-05T11:12:19;16.50;36.00
22383;DHT22;11359;45.802;13.530;2023-03-05T11:15:21;16.50;35.90
22383;DHT22;11359;45.802;13.530;2023-03-05T11:18:14;16.60;36.00
22383;DHT22;11359;45.802;13.530;2023-03-05T11:20:41;16.60;35.90
22383;DHT22;11359;45.802;13.530;2023-03-05T11:25:51;16.70;36.10
22383;DHT22;11359;45.802;13.530;2023-03-05T11:28:19;16.70;35.70
22383;DHT22;11359;45.802;13.530;2023-03-05T11:30:54;16.80;35.60
22383;DHT22;11359;45.802;13.530;2023-03-05T11:33:22;16.80;35.60
22383;DHT22;11359;45.802;13.530;2023-03-05T11:35:49;16.80;35.50
22383;DHT22;11359;45.802;13.530;2023-03-05T11:38:24;16.90;35.50
22383;DHT22;11359;45.802;13.530;2023-03-05T11:40:52;16.90;35.50
22383;DHT22;11359;45.802;13.530;2023-03-05T11:43:23;16.90;35.40
22383;DHT22;11359;45.802;13.530;2023-03-05T11:45:52;16.90;35.30
22383;DHT22;11359;45.802;13.530;2023-03-05T11:48:25;17.00;35.30
22383;DHT22;11359;45.802;13.530;2023-03-05T11:50:59;17.00;35.20
22383;DHT22;11359;45.802;13.530;2023-03-05T11:53:28;17.10;35.30
22383;DHT22;11359;45.802;13.530;2023-03-05T12:01:15;17.10;35.20
22383;DHT22;11359;45.802;13.530;2023-03-05T12:03:41;17.20;35.20
22383;DHT22;11359;45.802;13.530;2023-03-05T12:06:34;17.20;35.10
22383;DHT22;11359;45.802;13.530;2023-03-05T12:09:08;17.20;35.00
22383;DHT22;11359;45.802;13.530;2023-03-05T12:11:37;17.20;34.80
22383;DHT22;11359;45.802;13.530;2023-03-05T12:14:29;17.30;34.80
22383;DHT22;11359;45.802;13.530;2023-03-05T12:17:13;17.30;34.80
22383;DHT22;11359;45.802;13.530;2023-03-05T12:22:39;17.40;34.60
22383;DHT22;11359;45.802;13.530;2023-03-05T12:27:46;17.50;34.50
22383;DHT22;11359;45.802;13.530;2023-03-05T12:33:00;17.50;34.30
22383;DHT22;11359;45.802;13.530;2023-03-05T12:35:32;17.60;34.30
22383;DHT22;11359;45.802;13.530;2023-03-05T12:38:13;17.70;34.30
22383;DHT22;11359;45.802;13.530;2023-03-05T12:40:41;17.70;34.30
22383;DHT22;11359;45.802;13.530;2023-03-05T12:43:29;17.70;34.20
22383;DHT22;11359;45.802;13.530;2023-03-05T12:46:22;17.80;34.30
22383;DHT22;11359;45.802;13.530;2023-03-05T12:48:49;17.80;34.20
22383;DHT22;11359;45.802;13.530;2023-03-05T12:51:28;17.80;34.20
22383;DHT22;11359;45.802;13.530;2023-03-05T12:53:54;17.80;34.20
22383;DHT22;11359;45.802;13.530;2023-03-05T12:56:24;17.90;34.20
22383;DHT22;11359;45.802;13.530;2023-03-05T12:58:54;17.90;34.00
22383;DHT22;11359;45.802;13.530;2023-03-05T13:04:04;18.00;34.10
22383;DHT22;11359;45.802;13.530;2023-03-05T13:06:36;18.00;34.00
22383;DHT22;11359;45.802;13.530;2023-03-05T13:09:28;18.10;34.10
22383;DHT22;11359;45.802;13.530;2023-03-05T13:11:54;18.10;34.00
22383;DHT22;11359;45.802;13.530;2023-03-05T13:14:36;18.10;33.90
22383;DHT22;11359;45.802;13.530;2023-03-05T13:17:25;18.20;33.90
22383;DHT22;11359;45.802;13.530;2023-03-05T13:19:51;18.20;34.00
22383;DHT22;11359;45.802;13.530;2023-03-05T13:22:17;18.20;33.90
22383;DHT22;11359;45.802;13.530;2023-03-05T13:24:43;18.30;34.00
22383;DHT22;11359;45.802;13.530;2023-03-05T13:27:21;18.30;34.00
22383;DHT22;11359;45.802;13.530;2023-03-05T13:29:52;18.30;34.00
22383;DHT22;11359;45.802;13.530;2023-03-05T13:32:25;18.40;34.00
22383;DHT22;11359;45.802;13.530;2023-03-05T13:34:54;18.40;33.90
22383;DHT22;11359;45.802;13.530;2023-03-05T13:37:24;18.50;33.90
22383;DHT22;11359;45.802;13.530;2023-03-05T13:42:26;18.60;34.00
22383;DHT22;11359;45.802;13.530;2023-03-05T13:47:22;18.60;34.10
22383;DHT22;11359;45.802;13.530;2023-03-05T13:49:58;18.70;34.10
22383;DHT22;11359;45.802;13.530;2023-03-05T13:52:36;18.70;34.10
22383;DHT22;11359;45.802;13.530;2023-03-05T13:55:11;18.80;34.20
22383;DHT22;11359;45.802;13.530;2023-03-05T13:57:48;18.80;34.20
22383;DHT22;11359;45.802;13.530;2023-03-05T14:02:56;18.90;34.30
22383;DHT22;11359;45.802;13.530;2023-03-05T14:05:22;18.90;34.30
22383;DHT22;11359;45.802;13.530;2023-03-05T14:07:49;19.00;34.40
22383;DHT22;11359;45.802;13.530;2023-03-05T14:10:37;19.00;34.50
22383;DHT22;11359;45.802;13.530;2023-03-05T14:13:06;19.10;34.60
22383;DHT22;11359;45.802;13.530;2023-03-05T14:15:36;19.10;34.50
22383;DHT22;11359;45.802;13.530;2023-03-05T14:20:39;19.20;34.50
22383;DHT22;11359;45.802;13.530;2023-03-05T14:26:29;19.30;34.40
22383;DHT22;11359;45.802;13.530;2023-03-05T14:31:25;19.30;34.30
22383;DHT22;11359;45.802;13.530;2023-03-05T14:33:52;19.30;34.30
22383;DHT22;11359;45.802;13.530;2023-03-05T14:36:25;19.40;34.30
22383;DHT22;11359;45.802;13.530;2023-03-05T14:38:53;19.40;34.40
22383;DHT22;11359;45.802;13.530;2023-03-05T14:41:20;19.40;34.30
22383;DHT22;11359;45.802;13.530;2023-03-05T14:43:47;19.50;34.30
22383;DHT22;11359;45.802;13.530;2023-03-05T14:46:12;19.50;34.20
22383;DHT22;11359;45.802;13.530;2023-03-05T14:51:14;19.50;34.10
22383;DHT22;11359;45.802;13.530;2023-03-05T14:53:44;19.60;34.10
22383;DHT22;11359;45.802;13.530;2023-03-05T14:56:25;19.60;34.10
22383;DHT22;11359;45.802;13.530;2023-03-05T14:58:53;19.60;34.10
22383;DHT22;11359;45.802;13.530;2023-03-05T15:01:19;19.60;34.00
22383;DHT22;11359;45.802;13.530;2023-03-05T15:03:45;19.60;34.10
22383;DHT22;11359;45.802;13.530;2023-03-05T15:06:20;19.60;34.00
22383;DHT22;11359;45.802;13.530;2023-03-05T15:08:48;19.60;34.00
22383;DHT22;11359;45.802;13.530;2023-03-05T15:11:13;19.60;34.00
22383;DHT22;11359;45.802;13.530;2023-03-05T15:13:39;19.60;34.10
22383;DHT22;11359;45.802;13.530;2023-03-05T15:16:06;19.60;34.10
22383;DHT22;11359;45.802;13.530;2023-03-05T15:18:32;19.60;34.10
22383;DHT22;11359;45.802;13.530;2023-03-05T15:20:58;19.60;34.10
22383;DHT22;11359;45.802;13.530;2023-03-05T15:23:24;19.60;34.10
22383;DHT22;11359;45.802;13.530;2023-03-05T15:25:50;19.60;34.10
22383;DHT22;11359;45.802;13.530;2023-03-05T15:28:16;19.60;34.10
22383;DHT22;11359;45.802;13.530;2023-03-05T15:30:45;19.60;34.20
22383;DHT22;11359;45.802;13.530;2023-03-05T15:33:18;19.60;34.30
22383;DHT22;11359;45.802;13.530;2023-03-05T15:35:44;19.60;34.30
22383;DHT22;11359;45.802;13.530;2023-03-05T15:38:10;19.60;34.40
22383;DHT22;11359;45.802;13.530;2023-03-05T15:40:36;19.60;34.50
22383;DHT22;11359;45.802;13.530;2023-03-05T15:43:02;19.60;34.50
22383;DHT22;11359;45.802;13.530;2023-03-05T15:45:28;19.60;34.50
22383;DHT22;11359;45.802;13.530;2023-03-05T15:47:58;19.60;34.50
22383;DHT22;11359;45.802;13.530;2023-03-05T15:50:24;19.60;34.50
22383;DHT22;11359;45.802;13.530;2023-03-05T15:52:50;19.60;34.60
22383;DHT22;11359;45.802;13.530;2023-03-05T15:55:20;19.60;34.60
22383;DHT22;11359;45.802;13.530;2023-03-05T15:57:48;19.60;34.60
22383;DHT22;11359;45.802;13.530;2023-03-05T16:00:21;19.60;34.60
22383;DHT22;11359;45.802;13.530;2023-03-05T16:02:48;19.60;34.60
22383;DHT22;11359;45.802;13.530;2023-03-05T16:05:14;19.60;34.60
22383;DHT22;11359;45.802;13.530;2023-03-05T16:07:41;19.60;34.70
22383;DHT22;11359;45.802;13.530;2023-03-05T16:10:21;19.60;34.80
22383;DHT22;11359;45.802;13.530;2023-03-05T16:12:50;19.50;34.90
22383;DHT22;11359;45.802;13.530;2023-03-05T16:15:19;19.50;34.90
22383;DHT22;11359;45.802;13.530;2023-03-05T16:17:50;19.50;35.00
22383;DHT22;11359;45.802;13.530;2023-03-05T16:20:18;19.50;35.10
22383;DHT22;11359;45.802;13.530;2023-03-05T16:22:45;19.50;35.20
22383;DHT22;11359;45.802;13.530;2023-03-05T16:25:11;19.50;35.30
22383;DHT22;11359;45.802;13.530;2023-03-05T16:27:37;19.50;35.20
22383;DHT22;11359;45.802;13.530;2023-03-05T16:30:05;19.50;35.20
22383;DHT22;11359;45.802;13.530;2023-03-05T16:32:31;19.40;35.20
22383;DHT22;11359;45.802;13.530;2023-03-05T16:34:57;19.40;35.30
22383;DHT22;11359;45.802;13.530;2023-03-05T16:37:24;19.40;35.40